Terminal Aerodrome Forecast
Issued by NWS Memphis, TN

Home | Current Version | Previous Version | Text Only | Print | Product List | Glossary On
Versions: 1 2 3 4 5 6 7 8 9 10 11 12 13 14 15 16 17 18 19 20 21
000
FTUS44 KMEG 050608 AAA
TAFMKL
TAF AMD
KMKL 050608Z 0506/0606 02018G28KT 4SM -SNPL BR SCT009 OVC015
      TEMPO 0506/0509 2SM -SNPL BR BKN009 OVC012
     FM050900 01017G27KT 3SM -SN BR OVC007
      TEMPO 0509/0512 1/2SM SN FZFG OVC003
     FM051600 01012G20KT P6SM -SN OVC012
     FM052000 36012KT P6SM OVC050
     FM060200 02005KT P6SM OVC250=

USA.gov is the U.S. government's official web portal to all federal, state and local government web resources and services.